Observation data for Abernathy on 10/17/2019      Previous  Date       Current Mesonet Observations  Soil Data  Daily Summary Page  Observations in Plain Language
KARS 170500Z 20006KT 08/01 A3012 RMK A01 T00750010  RH  064%=      5-min Rain = 0
KARS 170505Z 20006KT 07/01 A3012 RMK A01 T00740010  RH  065%=      5-min Rain = 0
KARS 170510Z 20006KT 07/01 A3012 RMK A01 T00660011  RH  069%=      5-min Rain = 0
KARS 170515Z 20006KT 06/01 A3012 RMK A01 T00630011  RH  070%=      5-min Rain = 0
KARS 170520Z 20006KT 06/01 A3012 RMK A01 T00640011  RH  069%=      5-min Rain = 0
KARS 170525Z 20005KT 07/01 A3012 RMK A01 T00660011  RH  069%=      5-min Rain = 0
KARS 170530Z 20005KT 06/01 A3012 RMK A01 T00640011  RH  070%=      5-min Rain = 0
KARS 170535Z 20006KT 06/01 A3012 RMK A01 T00640012  RH  070%=      5-min Rain = 0
KARS 170540Z 20006KT 07/01 A3012 RMK A01 T00660012  RH  069%=      5-min Rain = 0
KARS 170545Z 21007KT 07/01 A3012 RMK A01 T00650011  RH  069%=      5-min Rain = 0
KARS 170550Z 21006KT 07/01 A3011 RMK A01 T00660011  RH  069%=      5-min Rain = 0
KARS 170555Z 22006KT 06/01 A3011 RMK A01 T00640010  RH  069%=      5-min Rain = 0
KARS 170600Z 22006KT 07/01 A3011 RMK A01 T00690008  RH  066%=      5-min Rain = 0
KARS 170605Z 22006KT 07/01 A3011 RMK A01 T00710007  RH  064%=      5-min Rain = 0
KARS 170610Z 22006KT 07/01 A3011 RMK A01 T00700006  RH  064%=      5-min Rain = 0
KARS 170615Z 22006KT 07/01 A3011 RMK A01 T00660006  RH  067%=      5-min Rain = 0
KARS 170620Z 22007KT 06/01 A3011 RMK A01 T00630006  RH  068%=      5-min Rain = 0
KARS 170625Z 23007KT 06/01 A3011 RMK A01 T00620007  RH  069%=      5-min Rain = 0
KARS 170630Z 23006KT 06/01 A3011 RMK A01 T00600006  RH  070%=      5-min Rain = 0
KARS 170635Z 23006KT 06/00 A3011 RMK A01 T00630004  RH  067%=      5-min Rain = 0
KARS 170640Z 24007KT 07/01 A3011 RMK A01 T00660005  RH  066%=      5-min Rain = 0
KARS 170645Z 24007KT 07/01 A3011 RMK A01 T00700007  RH  065%=      5-min Rain = 0
KARS 170650Z 24008KT 07/01 A3011 RMK A01 T00710006  RH  064%=      5-min Rain = 0
KARS 170655Z 24008KT 07/01 A3011 RMK A01 T00720005  RH  063%=      5-min Rain = 0
KARS 170700Z 24008KT 08/00 A3011 RMK A01 T00760004  RH  061%=      5-min Rain = 0
KARS 170705Z 24008KT 08/00 A3011 RMK A01 T00770003  RH  060%=      5-min Rain = 0
KARS 170710Z 23008KT 08/00 A3011 RMK A01 T00790002  RH  059%=      5-min Rain = 0
KARS 170715Z 24008KT 08/00 A3011 RMK A01 T00810002  RH  058%=      5-min Rain = 0
KARS 170720Z 24008KT 08/00 A3011 RMK A01 T00800000  RH  058%=      5-min Rain = 0
KARS 170725Z 24008KT 08/M00 A3011 RMK A01 T00791001  RH  058%=      5-min Rain = 0
KARS 170730Z 24008KT 08/M00 A3011 RMK A01 T00771002  RH  058%=      5-min Rain = 0
KARS 170735Z 24008KT 08/M00 A3011 RMK A01 T00801003  RH  057%=      5-min Rain = 0
KARS 170740Z 23008KT 08/M00 A3011 RMK A01 T00791002  RH  057%=      5-min Rain = 0
KARS 170745Z 24009KT 08/M00 A3011 RMK A01 T00781002  RH  058%=      5-min Rain = 0
KARS 170750Z 23010KT 08/M00 A301 RMK A01 T00811003  RH  056%=      5-min Rain = 0
KARS 170755Z 23009KT 08/M00 A301 RMK A01 T00811004  RH  056%=      5-min Rain = 0
KARS 170800Z 23008KT 08/M00 A301 RMK A01 T00801004  RH  056%=      5-min Rain = 0
KARS 170805Z 23008KT 08/M00 A301 RMK A01 T00771004  RH  057%=      5-min Rain = 0
KARS 170810Z 24006KT 08/M00 A301 RMK A01 T00751004  RH  058%=      5-min Rain = 0
KARS 170815Z 25005KT 07/M00 A301 RMK A01 T00671003  RH  061%=      5-min Rain = 0
KARS 170820Z 25006KT 06/M00 A301 RMK A01 T00601002  RH  065%=      5-min Rain = 0
KARS 170825Z 25007KT 06/M00 A301 RMK A01 T00591002  RH  066%=      5-min Rain = 0
KARS 170830Z 26006KT 06/M00 A301 RMK A01 T00611003  RH  064%=      5-min Rain = 0
KARS 170835Z 26006KT 06/M00 A301 RMK A01 T00591003  RH  065%=      5-min Rain = 0
KARS 170840Z 26006KT 06/M00 A301 RMK A01 T00591004  RH  065%=      5-min Rain = 0
KARS 170845Z 25006KT 06/M00 A3009 RMK A01 T00601003  RH  064%=      5-min Rain = 0
KARS 170850Z 25006KT 06/M00 A3009 RMK A01 T00611003  RH  064%=      5-min Rain = 0
KARS 170855Z 26007KT 06/M00 A3009 RMK A01 T00591003  RH  065%=      5-min Rain = 0
KARS 170900Z 26007KT 06/M00 A3008 RMK A01 T00581003  RH  066%=      5-min Rain = 0
KARS 170905Z 26007KT 06/M00 A3008 RMK A01 T00571003  RH  066%=      5-min Rain = 0
KARS 170910Z 25007KT 06/M00 A3008 RMK A01 T00591003  RH  065%=      5-min Rain = 0
KARS 170915Z 25008KT 06/M00 A3008 RMK A01 T00621003  RH  064%=      5-min Rain = 0
KARS 170920Z 25008KT 06/M00 A3008 RMK A01 T00641004  RH  062%=      5-min Rain = 0
KARS 170925Z 25008KT 07/M00 A3008 RMK A01 T00661004  RH  061%=      5-min Rain = 0
KARS 170930Z 25008KT 07/M01 A3007 RMK A01 T00661005  RH  061%=      5-min Rain = 0
KARS 170935Z 25008KT 07/M01 A3007 RMK A01 T00661005  RH  061%=      5-min Rain = 0
KARS 170940Z 24008KT 07/M01 A3007 RMK A01 T00681006  RH  060%=      5-min Rain = 0
KARS 170945Z 24006KT 07/M01 A3007 RMK A01 T00681006  RH  060%=      5-min Rain = 0
KARS 170950Z 25005KT 06/M01 A3008 RMK A01 T00641006  RH  062%=      5-min Rain = 0
KARS 170955Z 26006KT 06/M01 A3008 RMK A01 T00601006  RH  063%=      5-min Rain = 0
KARS 171000Z 26006KT 06/M01 A3008 RMK A01 T00581006  RH  064%=      5-min Rain = 0
KARS 171005Z 26006KT 06/M01 A3007 RMK A01 T00571006  RH  065%=      5-min Rain = 0
KARS 171010Z 25005KT 06/M01 A3007 RMK A01 T00551006  RH  065%=      5-min Rain = 0
KARS 171015Z 25006KT 06/M01 A3007 RMK A01 T00561005  RH  065%=      5-min Rain = 0
KARS 171020Z 24007KT 06/M00 A3007 RMK A01 T00591004  RH  065%=      5-min Rain = 0
KARS 171025Z 24007KT 06/M00 A3006 RMK A01 T00621004  RH  063%=      5-min Rain = 0
KARS 171030Z 24007KT 06/M00 A3007 RMK A01 T00621004  RH  063%=      5-min Rain = 0
KARS 171035Z 26006KT 06/M00 A3007 RMK A01 T00621004  RH  063%=      5-min Rain = 0
KARS 171040Z 26005KT 06/M00 A3007 RMK A01 T00581004  RH  065%=      5-min Rain = 0
KARS 171045Z 25005KT 06/M01 A3007 RMK A01 T00561005  RH  066%=      5-min Rain = 0
KARS 171050Z 25007KT 06/M01 A3006 RMK A01 T00561005  RH  066%=      5-min Rain = 0
KARS 171055Z 25006KT 06/M00 A3006 RMK A01 T00561004  RH  066%=      5-min Rain = 0
KARS 171100Z 25006KT 06/M00 A3006 RMK A01 T00561004  RH  066%=      5-min Rain = 0
KARS 171105Z 23005KT 06/M00 A3006 RMK A01 T00551004  RH  067%=      5-min Rain = 0
KARS 171110Z 21004KT 05/M01 A3006 RMK A01 T00481005  RH  069%=      5-min Rain = 0
KARS 171115Z 21005KT 05/M00 A3006 RMK A01 T00451004  RH  071%=      5-min Rain = 0
KARS 171120Z 20004KT 04/M00 A3006 RMK A01 T00441003  RH  072%=      5-min Rain = 0
KARS 171125Z 20005KT 04/M00 A3006 RMK A01 T00421003  RH  073%=      5-min Rain = 0
KARS 171130Z 20005KT 04/M00 A3006 RMK A01 T00431002  RH  073%=      5-min Rain = 0
KARS 171135Z 20004KT 04/M00 A3006 RMK A01 T00401002  RH  074%=      5-min Rain = 0
KARS 171140Z 21005KT 04/M00 A3006 RMK A01 T00401003  RH  075%=      5-min Rain = 0
KARS 171145Z 24004KT 04/M00 A3006 RMK A01 T00381003  RH  075%=      5-min Rain = 0
KARS 171150Z 26003KT 04/M00 A3006 RMK A01 T00421002  RH  074%=      5-min Rain = 0
KARS 171155Z 26003KT 05/M00 A3006 RMK A01 T00461003  RH  072%=      5-min Rain = 0
KARS 171200Z 23003KT 05/M00 A3006 RMK A01 T00461003  RH  071%=      5-min Rain = 0
KARS 171205Z 21004KT 05/M00 A3006 RMK A01 T00451003  RH  071%=      5-min Rain = 0
KARS 171210Z 22004KT 05/M00 A3006 RMK A01 T00451004  RH  072%=      5-min Rain = 0
KARS 171215Z 24004KT 05/M00 A3006 RMK A01 T00461004  RH  071%=      5-min Rain = 0
KARS 171220Z 24004KT 05/M00 A3006 RMK A01 T00451004  RH  071%=      5-min Rain = 0
KARS 171225Z 19004KT 04/M00 A3006 RMK A01 T00421004  RH  073%=      5-min Rain = 0
KARS 171230Z 18005KT 04/M00 A3006 RMK A01 T00371003  RH  076%=      5-min Rain = 0
KARS 171235Z 19005KT 03/M00 A3006 RMK A01 T00331003  RH  078%=      5-min Rain = 0
KARS 171240Z 20005KT 03/M00 A3006 RMK A01 T00301003  RH  080%=      5-min Rain = 0
KARS 171245Z 20005KT 03/M00 A3006 RMK A01 T00271004  RH  081%=      5-min Rain = 0
KARS 171250Z 20005KT 03/M01 A3006 RMK A01 T00261005  RH  081%=      5-min Rain = 0
KARS 171255Z 20005KT 03/M00 A3005 RMK A01 T00261004  RH  082%=      5-min Rain = 0
KARS 171300Z 19005KT 03/M00 A3005 RMK A01 T00261004  RH  081%=      5-min Rain = 0
KARS 171305Z 20005KT 03/M00 A3005 RMK A01 T00261004  RH  082%=      5-min Rain = 0
KARS 171310Z 20005KT 03/M00 A3005 RMK A01 T00261003  RH  082%=      5-min Rain = 0
KARS 171315Z 20005KT 03/M00 A3005 RMK A01 T00281002  RH  082%=      5-min Rain = 0
KARS 171320Z 20006KT 03/00 A3006 RMK A01 T00330002  RH  081%=      5-min Rain = 0
KARS 171325Z 21005KT 04/01 A3006 RMK A01 T00380006  RH  080%=      5-min Rain = 0
KARS 171330Z 22004KT 04/01 A3006 RMK A01 T00430008  RH  079%=      5-min Rain = 0
KARS 171335Z 22003KT 05/01 A3006 RMK A01 T00480009  RH  077%=      5-min Rain = 0
KARS 171340Z 22003KT 05/01 A3006 RMK A01 T00520012  RH  076%=      5-min Rain = 0
KARS 171345Z 21002KT 06/02 A3006 RMK A01 T00580015  RH  075%=      5-min Rain = 0
KARS 171350Z 21003KT 06/02 A3006 RMK A01 T00640019  RH  074%=      5-min Rain = 0
KARS 171355Z 22003KT 07/02 A3007 RMK A01 T00730024  RH  072%=      5-min Rain = 0
KARS 171400Z 22004KT 08/03 A3007 RMK A01 T00810025  RH  069%=      5-min Rain = 0
KARS 171405Z 23005KT 09/02 A3007 RMK A01 T00920023  RH  063%=      5-min Rain = 0
KARS 171410Z 24006KT 10/03 A3007 RMK A01 T00970025  RH  062%=      5-min Rain = 0
KARS 171415Z 24006KT 10/03 A3007 RMK A01 T01020027  RH  061%=      5-min Rain = 0
KARS 171420Z 23006KT 11/03 A3007 RMK A01 T01060031  RH  061%=      5-min Rain = 0
KARS 171425Z 22006KT 11/04 A3007 RMK A01 T01140036  RH  060%=      5-min Rain = 0
KARS 171430Z 22008KT 12/04 A3007 RMK A01 T01210038  RH  058%=      5-min Rain = 0
KARS 171435Z 22010KT 13/04 A3007 RMK A01 T01260040  RH  057%=      5-min Rain = 0
KARS 171440Z 23009KT 13/04 A3007 RMK A01 T01300041  RH  056%=      5-min Rain = 0
KARS 171445Z 23010KT 14/04 A3007 RMK A01 T01360041  RH  054%=      5-min Rain = 0
KARS 171450Z 24010KT 14/04 A3007 RMK A01 T01400039  RH  051%=      5-min Rain = 0
KARS 171455Z 24011KT 14/04 A3007 RMK A01 T01440039  RH  050%=      5-min Rain = 0
KARS 171500Z 24012KT 15/04 A3007 RMK A01 T01490039  RH  049%=      5-min Rain = 0
KARS 171505Z 24014KT 15/04 A3007 RMK A01 T01540038  RH  047%=      5-min Rain = 0
KARS 171510Z 25013KT 16/04 A3007 RMK A01 T01560038  RH  046%=      5-min Rain = 0
KARS 171515Z 23013KT 16/04 A3006 RMK A01 T01610037  RH  044%=      5-min Rain = 0
KARS 171520Z 23014KT 17/03 A3006 RMK A01 T01650034  RH  042%=      5-min Rain = 0
KARS 171525Z 23011KT 17/04 A3007 RMK A01 T01720036  RH  041%=      5-min Rain = 0
KARS 171530Z 23013G18KT 17/03 A3007 RMK A01 T01740033  RH  040%=      5-min Rain = 0
KARS 171535Z 22014KT 18/03 A3006 RMK A01 T01750028  RH  038%=      5-min Rain = 0
KARS 171540Z 23014KT 18/03 A3006 RMK A01 T01750028  RH  038%=      5-min Rain = 0
KARS 171545Z 23014KT 18/03 A3006 RMK A01 T01770027  RH  037%=      5-min Rain = 0
KARS 171550Z 24012KT 18/03 A3006 RMK A01 T01820029  RH  037%=      5-min Rain = 0
KARS 171555Z 25014KT 18/02 A3006 RMK A01 T01840023  RH  035%=      5-min Rain = 0
KARS 171600Z 23014KT 18/02 A3005 RMK A01 T01840023  RH  035%=      5-min Rain = 0
KARS 171605Z 23013KT 19/02 A3005 RMK A01 T01860024  RH  034%=      5-min Rain = 0
KARS 171610Z 23012KT 19/03 A3005 RMK A01 T01890027  RH  035%=      5-min Rain = 0
KARS 171615Z 23012KT 19/03 A3005 RMK A01 T01920027  RH  034%=      5-min Rain = 0
KARS 171620Z 23013KT 20/03 A3004 RMK A01 T01950028  RH  034%=      5-min Rain = 0
KARS 171625Z 24012G17KT 20/03 A3004 RMK A01 T01980030  RH  034%=      5-min Rain = 0
KARS 171630Z 23012KT 20/03 A3004 RMK A01 T01980031  RH  034%=      5-min Rain = 0
KARS 171635Z 21012KT 20/03 A3004 RMK A01 T02010032  RH  033%=      5-min Rain = 0
KARS 171640Z 21012G17KT 20/03 A3003 RMK A01 T02010032  RH  033%=      5-min Rain = 0
KARS 171645Z 21012KT 20/04 A3003 RMK A01 T02040035  RH  033%=      5-min Rain = 0
KARS 171650Z 22010G15KT 21/03 A3003 RMK A01 T02060033  RH  033%=      5-min Rain = 0
KARS 171655Z 22013KT 21/03 A3003 RMK A01 T02070030  RH  032%=      5-min Rain = 0
KARS 171700Z 22012KT 21/03 A3003 RMK A01 T02070030  RH  032%=      5-min Rain = 0
KARS 171705Z 22011KT 21/03 A3002 RMK A01 T02090030  RH  031%=      5-min Rain = 0
KARS 171710Z 22011KT 21/03 A3002 RMK A01 T02110028  RH  030%=      5-min Rain = 0
KARS 171715Z 22012KT 21/03 A3002 RMK A01 T02130031  RH  031%=      5-min Rain = 0
KARS 171720Z 21012KT 21/03 A3002 RMK A01 T02140029  RH  030%=      5-min Rain = 0
KARS 171725Z 22011KT 21/03 A3002 RMK A01 T02140028  RH  030%=      5-min Rain = 0
KARS 171730Z 23011KT 22/03 A3002 RMK A01 T02180031  RH  030%=      5-min Rain = 0
KARS 171735Z 23011KT 22/03 A3002 RMK A01 T02190032  RH  030%=      5-min Rain = 0
KARS 171740Z 22012KT 22/03 A3002 RMK A01 T02200029  RH  029%=      5-min Rain = 0
KARS 171745Z 21011KT 22/03 A3001 RMK A01 T02220030  RH  029%=      5-min Rain = 0
KARS 171750Z 22011KT 23/03 A3001 RMK A01 T02250034  RH  029%=      5-min Rain = 0
KARS 171755Z 22011KT 22/03 A3001 RMK A01 T02220031  RH  029%=      5-min Rain = 0
KARS 171800Z 22011KT 22/03 A30 RMK A01 T02230031  RH  029%=      5-min Rain = 0
KARS 171805Z 23010KT 23/03 A30 RMK A01 T02250033  RH  029%=      5-min Rain = 0
KARS 171810Z 22009G14KT 23/04 A30 RMK A01 T02280035  RH  029%=      5-min Rain = 0
KARS 171815Z 22011KT 23/04 A30 RMK A01 T02290035  RH  029%=      5-min Rain = 0
KARS 171820Z 20010KT 23/04 A30 RMK A01 T02310037  RH  029%=      5-min Rain = 0
KARS 171825Z 21010G15KT 23/04 A2999 RMK A01 T02300035  RH  028%=      5-min Rain = 0
KARS 171830Z 20011G16KT 23/04 A2999 RMK A01 T02330037  RH  028%=      5-min Rain = 0
KARS 171835Z 22010G15KT 23/04 A2999 RMK A01 T02340036  RH  028%=      5-min Rain = 0
KARS 171840Z 21009G15KT 24/04 A2998 RMK A01 T02350037  RH  028%=      5-min Rain = 0
KARS 171845Z 20011KT 23/04 A2998 RMK A01 T02340037  RH  028%=      5-min Rain = 0
KARS 171850Z 21012G17KT 24/04 A2998 RMK A01 T02360036  RH  028%=      5-min Rain = 0
KARS 171855Z 22011G17KT 24/04 A2998 RMK A01 T02380036  RH  027%=      5-min Rain = 0
KARS 171900Z 21010KT 24/03 A2998 RMK A01 T02360033  RH  027%=      5-min Rain = 0
KARS 171905Z 20012G18KT 24/04 A2997 RMK A01 T02390038  RH  028%=      5-min Rain = 0
KARS 171910Z 22011G17KT 24/03 A2997 RMK A01 T02390032  RH  026%=      5-min Rain = 0
KARS 171915Z 20010G15KT 24/04 A2996 RMK A01 T02420038  RH  027%=      5-min Rain = 0
KARS 171920Z 21011G19KT 24/04 A2996 RMK A01 T02440040  RH  027%=      5-min Rain = 0
KARS 171925Z 21012KT 25/04 A2996 RMK A01 T02450035  RH  026%=      5-min Rain = 0
KARS 171930Z 21010KT 25/04 A2995 RMK A01 T02450035  RH  026%=      5-min Rain = 0
KARS 171935Z 20012KT 25/04 A2995 RMK A01 T02480037  RH  026%=      5-min Rain = 0
KARS 171940Z 20012KT 25/03 A2995 RMK A01 T02460033  RH  025%=      5-min Rain = 0
KARS 171945Z 20011KT 25/04 A2994 RMK A01 T02460035  RH  026%=      5-min Rain = 0
KARS 171950Z 20014KT 25/03 A2994 RMK A01 T02480032  RH  025%=      5-min Rain = 0
KARS 171955Z 22011KT 25/03 A2993 RMK A01 T02480032  RH  025%=      5-min Rain = 0
KARS 172000Z 20011G17KT 25/03 A2993 RMK A01 T02490031  RH  025%=      5-min Rain = 0
KARS 172005Z 19011G17KT 25/03 A2993 RMK A01 T02500034  RH  025%=      5-min Rain = 0
KARS 172010Z 19013G18KT 25/03 A2993 RMK A01 T02510031  RH  024%=      5-min Rain = 0
KARS 172015Z 20011G21KT 25/03 A2992 RMK A01 T02500029  RH  024%=      5-min Rain = 0
KARS 172020Z 19012G17KT 25/03 A2992 RMK A01 T02530031  RH  024%=      5-min Rain = 0
KARS 172025Z 20012G18KT 26/04 A2992 RMK A01 T02550035  RH  025%=      5-min Rain = 0
KARS 172030Z 20010G16KT 25/04 A2992 RMK A01 T02530035  RH  025%=      5-min Rain = 0
KARS 172035Z 18012KT 25/03 A2992 RMK A01 T02530031  RH  024%=      5-min Rain = 0
KARS 172040Z 19012G19KT 25/03 A2992 RMK A01 T02530033  RH  024%=      5-min Rain = 0
KARS 172045Z 20013G18KT 25/03 A2992 RMK A01 T02530030  RH  024%=      5-min Rain = 0
KARS 172050Z 20012KT 25/03 A2991 RMK A01 T02530031  RH  024%=      5-min Rain = 0
KARS 172055Z 18010G15KT 26/04 A2991 RMK A01 T02550036  RH  025%=      5-min Rain = 0
KARS 172100Z 20012KT 26/03 A2991 RMK A01 T02570033  RH  024%=      5-min Rain = 0
KARS 172105Z 19011G17KT 26/03 A299 RMK A01 T02560032  RH  024%=      5-min Rain = 0
KARS 172110Z 20013G19KT 26/03 A299 RMK A01 T02550027  RH  023%=      5-min Rain = 0
KARS 172115Z 19012G17KT 26/03 A299 RMK A01 T02550033  RH  024%=      5-min Rain = 0
KARS 172120Z 19012KT 26/04 A299 RMK A01 T02550035  RH  024%=      5-min Rain = 0
KARS 172125Z 19013G18KT 26/04 A299 RMK A01 T02550035  RH  025%=      5-min Rain = 0
KARS 172130Z 19012G17KT 26/04 A299 RMK A01 T02570037  RH  024%=      5-min Rain = 0
KARS 172135Z 19013KT 26/03 A299 RMK A01 T02560034  RH  024%=      5-min Rain = 0
KARS 172140Z 18012KT 25/04 A2989 RMK A01 T02540036  RH  025%=      5-min Rain = 0
KARS 172145Z 19012G17KT 25/04 A2989 RMK A01 T02540035  RH  025%=      5-min Rain = 0
KARS 172150Z 18015KT 26/03 A2989 RMK A01 T02560034  RH  024%=      5-min Rain = 0
KARS 172155Z 18013G18KT 26/03 A2989 RMK A01 T02550032  RH  024%=      5-min Rain = 0
KARS 172200Z 19013G19KT 25/03 A2989 RMK A01 T02520033  RH  025%=      5-min Rain = 0
KARS 172205Z 19014KT 25/04 A2989 RMK A01 T02540036  RH  025%=      5-min Rain = 0
KARS 172210Z 19013G18KT 25/04 A2989 RMK A01 T02540035  RH  025%=      5-min Rain = 0
KARS 172215Z 19014KT 26/04 A2988 RMK A01 T02570035  RH  024%=      5-min Rain = 0
KARS 172220Z 19013KT 26/04 A2988 RMK A01 T02560041  RH  025%=      5-min Rain = 0
KARS 172225Z 19014KT 26/04 A2988 RMK A01 T02560042  RH  026%=      5-min Rain = 0
KARS 172230Z 19012G19KT 26/05 A2988 RMK A01 T02570045  RH  026%=      5-min Rain = 0
KARS 172235Z 18014G19KT 25/04 A2988 RMK A01 T02540040  RH  026%=      5-min Rain = 0
KARS 172240Z 19013KT 25/04 A2988 RMK A01 T02540042  RH  026%=      5-min Rain = 0
KARS 172245Z 20014G19KT 25/04 A2988 RMK A01 T02520042  RH  026%=      5-min Rain = 0
KARS 172250Z 19015KT 25/04 A2988 RMK A01 T02510040  RH  026%=      5-min Rain = 0
KARS 172255Z 18013G18KT 25/04 A2988 RMK A01 T02510043  RH  027%=      5-min Rain = 0
KARS 172300Z 18015KT 25/04 A2987 RMK A01 T02500044  RH  027%=      5-min Rain = 0
KARS 172305Z 18013KT 25/04 A2987 RMK A01 T02480044  RH  027%=      5-min Rain = 0
KARS 172310Z 19014KT 25/04 A2987 RMK A01 T02470043  RH  027%=      5-min Rain = 0
KARS 172315Z 19012KT 25/05 A2987 RMK A01 T02460045  RH  028%=      5-min Rain = 0
KARS 172320Z 18012KT 24/05 A2987 RMK A01 T02430046  RH  028%=      5-min Rain = 0
KARS 172325Z 18011KT 24/05 A2987 RMK A01 T02360046  RH  030%=      5-min Rain = 0
KARS 172330Z 18011KT 23/05 A2987 RMK A01 T02310045  RH  030%=      5-min Rain = 0
KARS 172335Z 18012KT 23/04 A2987 RMK A01 T02330044  RH  030%=      5-min Rain = 0
KARS 172340Z 18010KT 23/05 A2987 RMK A01 T02310047  RH  031%=      5-min Rain = 0
KARS 172345Z 18010KT 23/05 A2986 RMK A01 T02280047  RH  032%=      5-min Rain = 0
KARS 172350Z 18010KT 23/05 A2986 RMK A01 T02250046  RH  032%=      5-min Rain = 0
KARS 172355Z 17009KT 22/05 A2986 RMK A01 T02200047  RH  033%=      5-min Rain = 0
KARS 180000Z 17009KT 21/05 A2986 RMK A01 T02130047  RH  034%=      5-min Rain = 0
KARS 180005Z 17009KT 21/05 A2986 RMK A01 T02110047  RH  035%=      5-min Rain = 0
KARS 180010Z 17009KT 21/05 A2986 RMK A01 T02060046  RH  036%=      5-min Rain = 0
KARS 180015Z 17009KT 20/05 A2986 RMK A01 T02020047  RH  037%=      5-min Rain = 0
KARS 180020Z 17009KT 20/05 A2986 RMK A01 T02010047  RH  037%=      5-min Rain = 0
KARS 180025Z 17008KT 19/05 A2986 RMK A01 T01940049  RH  039%=      5-min Rain = 0
KARS 180030Z 17009KT 19/05 A2986 RMK A01 T01910048  RH  040%=      5-min Rain = 0
KARS 180035Z 17009KT 19/05 A2986 RMK A01 T01930047  RH  039%=      5-min Rain = 0
KARS 180040Z 17009KT 19/05 A2986 RMK A01 T01930047  RH  039%=      5-min Rain = 0
KARS 180045Z 17009KT 19/05 A2985 RMK A01 T01920048  RH  039%=      5-min Rain = 0
KARS 180050Z 17009KT 19/05 A2985 RMK A01 T01880048  RH  041%=      5-min Rain = 0
KARS 180055Z 16009KT 19/05 A2985 RMK A01 T01860049  RH  041%=      5-min Rain = 0
KARS 180100Z 16008KT 18/05 A2985 RMK A01 T01830051  RH  043%=      5-min Rain = 0
KARS 180105Z 16008KT 18/05 A2986 RMK A01 T01820051  RH  043%=      5-min Rain = 0
KARS 180110Z 16007KT 18/05 A2986 RMK A01 T01780052  RH  044%=      5-min Rain = 0
KARS 180115Z 16007KT 17/05 A2986 RMK A01 T01740052  RH  045%=      5-min Rain = 0
KARS 180120Z 16008KT 17/05 A2986 RMK A01 T01730053  RH  046%=      5-min Rain = 0
KARS 180125Z 16008KT 17/05 A2986 RMK A01 T01740054  RH  046%=      5-min Rain = 0
KARS 180130Z 16008KT 17/06 A2986 RMK A01 T01730055  RH  047%=      5-min Rain = 0
KARS 180135Z 16008KT 17/06 A2986 RMK A01 T01710055  RH  048%=      5-min Rain = 0
KARS 180140Z 16008KT 17/06 A2986 RMK A01 T01700056  RH  048%=      5-min Rain = 0
KARS 180145Z 16008KT 17/06 A2986 RMK A01 T01690057  RH  049%=      5-min Rain = 0
KARS 180150Z 16009KT 17/06 A2986 RMK A01 T01690058  RH  049%=      5-min Rain = 0
KARS 180155Z 16009KT 17/06 A2986 RMK A01 T01680059  RH  050%=      5-min Rain = 0
KARS 180200Z 15009KT 17/06 A2986 RMK A01 T01670059  RH  050%=      5-min Rain = 0
KARS 180205Z 15010KT 17/06 A2986 RMK A01 T01690059  RH  049%=      5-min Rain = 0
KARS 180210Z 16010KT 17/06 A2986 RMK A01 T01710059  RH  049%=      5-min Rain = 0
KARS 180215Z 16010KT 17/06 A2986 RMK A01 T01710059  RH  049%=      5-min Rain = 0
KARS 180220Z 16010KT 17/06 A2986 RMK A01 T01710060  RH  049%=      5-min Rain = 0
KARS 180225Z 16010KT 17/06 A2986 RMK A01 T01720060  RH  049%=      5-min Rain = 0
KARS 180230Z 16009KT 17/06 A2986 RMK A01 T01710060  RH  049%=      5-min Rain = 0
KARS 180235Z 16010KT 17/06 A2986 RMK A01 T01690060  RH  049%=      5-min Rain = 0
KARS 180240Z 16009KT 17/06 A2986 RMK A01 T01690059  RH  049%=      5-min Rain = 0
KARS 180245Z 16009KT 17/06 A2986 RMK A01 T01670059  RH  050%=      5-min Rain = 0
KARS 180250Z 16009KT 17/06 A2986 RMK A01 T01660058  RH  050%=      5-min Rain = 0
KARS 180255Z 16009KT 16/06 A2986 RMK A01 T01640058  RH  050%=      5-min Rain = 0
KARS 180300Z 16009KT 16/06 A2986 RMK A01 T01630058  RH  051%=      5-min Rain = 0
KARS 180305Z 15009KT 16/06 A2987 RMK A01 T01620058  RH  051%=      5-min Rain = 0
KARS 180310Z 16009KT 16/06 A2987 RMK A01 T01590057  RH  052%=      5-min Rain = 0
KARS 180315Z 16010KT 16/06 A2987 RMK A01 T01590057  RH  052%=      5-min Rain = 0
KARS 180320Z 16010KT 16/06 A2987 RMK A01 T01600057  RH  052%=      5-min Rain = 0
KARS 180325Z 16010KT 16/06 A2987 RMK A01 T01600058  RH  052%=      5-min Rain = 0
KARS 180330Z 16011KT 16/06 A2987 RMK A01 T01610058  RH  052%=      5-min Rain = 0
KARS 180335Z 16012KT 16/06 A2987 RMK A01 T01620058  RH  051%=      5-min Rain = 0
KARS 180340Z 16012KT 16/06 A2987 RMK A01 T01630058  RH  051%=      5-min Rain = 0
KARS 180345Z 16013KT 16/06 A2987 RMK A01 T01630058  RH  051%=      5-min Rain = 0
KARS 180350Z 17013KT 16/06 A2987 RMK A01 T01640059  RH  051%=      5-min Rain = 0
KARS 180355Z 17013KT 17/06 A2987 RMK A01 T01650059  RH  051%=      5-min Rain = 0
KARS 180400Z 17013KT 17/06 A2987 RMK A01 T01650059  RH  051%=      5-min Rain = 0
KARS 180405Z 17013KT 16/06 A2987 RMK A01 T01630059  RH  051%=      5-min Rain = 0
KARS 180410Z 16013KT 16/06 A2987 RMK A01 T01640060  RH  051%=      5-min Rain = 0
KARS 180415Z 17013KT 16/06 A2987 RMK A01 T01630060  RH  052%=      5-min Rain = 0
KARS 180420Z 17013G18KT 16/06 A2987 RMK A01 T01630060  RH  052%=      5-min Rain = 0
KARS 180425Z 17012KT 16/06 A2987 RMK A01 T01610060  RH  052%=      5-min Rain = 0
KARS 180430Z 16012G17KT 16/06 A2987 RMK A01 T01600060  RH  053%=      5-min Rain = 0
KARS 180435Z 17012KT 16/06 A2987 RMK A01 T01580060  RH  053%=      5-min Rain = 0
KARS 180440Z 17011G16KT 16/06 A2987 RMK A01 T01570060  RH  054%=      5-min Rain = 0
KARS 180445Z 17012KT 16/06 A2987 RMK A01 T01560059  RH  054%=      5-min Rain = 0
KARS 180450Z 16012KT 16/06 A2987 RMK A01 T01560058  RH  054%=      5-min Rain = 0
KARS 180455Z 17012KT 16/06 A2986 RMK A01 T01550058  RH  054%=      5-min Rain = 0

Page generated in 0.0089 seconds.